Time;durP1;ratioP1;P1;durP2;ratioP2;P2;SDS_P1;SDS_P2;PMS_P1;PMS_P2;Temp;Humidity;BMP_temperature;BMP_pressure;BME280_temperature;BME280_humidity;BME280_pressure;Samples;Min_cycle;Max_cycle;Signal;HPM_P1;HPM_P2
2023/09/30 00:01:36;;;;;;;8.70;3.60;;;;;;;19.79;59.63;97445.63;6216389;23;20020;-79
2023/09/30 00:04:06;;;;;;;7.53;3.50;;;;;;;19.78;59.61;97448.50;6227723;23;20095;-79
2023/09/30 00:06:36;;;;;;;9.00;3.70;;;;;;;19.73;59.92;97449.97;6232201;23;20021;-79
2023/09/30 00:09:05;;;;;;;8.95;4.07;;;;;;;19.69;59.81;97456.72;6228916;23;20021;-79
2023/09/30 00:11:34;;;;;;;10.50;3.90;;;;;;;19.66;59.95;97459.78;6216960;23;20021;-79
2023/09/30 00:14:16;;;;;;;7.90;3.53;;;;;;;19.62;60.05;97463.09;6215800;23;20017;-79
2023/09/30 00:16:47;;;;;;;7.15;3.38;;;;;;;19.57;60.10;97458.44;6216885;23;20366;-79
2023/09/30 00:19:22;;;;;;;9.07;3.75;;;;;;;19.53;60.47;97463.34;6216158;23;20025;-79
2023/09/30 00:31:36;;;;;;;4.93;3.00;;;;;;;19.38;60.70;97456.78;6177005;22;20047;-79
2023/09/30 00:34:04;;;;;;;9.20;3.63;;;;;;;19.38;61.00;97447.00;6247029;23;20078;-79
2023/09/30 00:36:32;;;;;;;7.07;3.25;;;;;;;19.41;61.02;97448.41;6247237;23;20024;-79
2023/09/30 00:39:00;;;;;;;8.07;3.85;;;;;;;19.40;60.82;97437.03;6245133;23;20099;-79
2023/09/30 00:41:30;;;;;;;8.60;3.83;;;;;;;19.40;60.88;97446.81;6216488;23;20103;-79
2023/09/30 00:43:58;;;;;;;6.30;3.25;;;;;;;19.38;60.78;97438.25;6216426;23;20086;-78
2023/09/30 00:46:32;;;;;;;7.40;3.28;;;;;;;19.32;60.89;97440.72;6215262;23;20027;-79
2023/09/30 00:49:30;;;;;;;11.82;4.25;;;;;;;19.31;61.29;97448.91;6215235;23;20023;-80
2023/09/30 00:52:14;;;;;;;6.80;3.25;;;;;;;19.29;61.18;97446.47;6190424;23;20025;-79
2023/09/30 00:54:55;;;;;;;7.97;4.10;;;;;;;19.29;60.95;97446.47;6219670;23;20016;-79
2023/09/30 00:57:38;;;;;;;7.38;3.83;;;;;;;19.28;61.08;97438.75;6216151;23;20021;-78
2023/09/30 01:00:15;;;;;;;5.57;3.63;;;;;;;19.25;61.29;97442.63;6215421;23;20037;-79
2023/09/30 01:03:03;;;;;;;5.78;3.22;;;;;;;19.22;61.10;97445.72;6223065;23;20028;-79
2023/09/30 01:05:41;;;;;;;6.97;3.05;;;;;;;19.18;61.21;97449.81;6236115;23;20347;-79
2023/09/30 01:08:37;;;;;;;6.45;3.20;;;;;;;19.12;61.56;97438.25;6226872;23;20023;-80
2023/09/30 01:14:52;;;;;;;7.57;3.92;;;;;;;19.05;61.94;97444.63;6216301;23;20028;-80
2023/09/30 01:20:49;;;;;;;7.18;3.10;;;;;;;19.07;61.66;97446.03;6203702;23;20016;-79
2023/09/30 01:23:53;;;;;;;6.90;3.10;;;;;;;19.12;61.78;97445.38;6215608;23;20020;-80
2023/09/30 01:26:23;;;;;;;4.75;2.55;;;;;;;19.13;61.55;97437.25;6184927;23;20068;-79
2023/09/30 01:32:33;;;;;;;6.85;3.10;;;;;;;19.15;61.61;97450.22;6124100;23;20037;-79
2023/09/30 01:35:07;;;;;;;6.53;3.10;;;;;;;19.13;61.63;97447.00;6116426;23;20026;-79
2023/09/30 01:37:38;;;;;;;4.10;2.28;;;;;;;19.14;61.56;97445.97;6124025;23;20021;-79
2023/09/30 01:43:49;;;;;;;7.80;3.00;;;;;;;19.15;61.58;97460.81;6215620;23;20035;-79
2023/09/30 01:50:31;;;;;;;4.80;2.72;;;;;;;19.14;61.78;97453.91;6215257;23;20366;-79
2023/09/30 01:56:49;;;;;;;7.40;2.90;;;;;;;19.03;62.19;97458.06;6210923;23;20021;-79
2023/09/30 01:59:44;;;;;;;6.18;3.00;;;;;;;18.98;62.17;97462.34;6215214;23;20401;-79
2023/09/30 02:06:12;;;;;;;4.32;2.70;;;;;;;18.90;62.47;97458.97;6195729;23;20025;-80
2023/09/30 02:09:03;;;;;;;5.13;2.53;;;;;;;18.84;62.82;97459.00;6190891;23;20130;-79
2023/09/30 02:12:13;;;;;;;5.32;2.25;;;;;;;18.81;63.04;97459.44;6215287;23;20462;-80
2023/09/30 02:14:52;;;;;;;7.65;3.47;;;;;;;18.74;62.75;97459.44;6215502;23;20023;-79
2023/09/30 02:17:37;;;;;;;3.83;2.67;;;;;;;18.69;63.20;97451.34;6215729;23;20075;-79
2023/09/30 02:20:25;;;;;;;6.32;2.97;;;;;;;18.69;63.30;97456.63;6213378;23;20058;-80
2023/09/30 02:23:08;;;;;;;6.55;2.65;;;;;;;18.63;63.04;97463.56;6208511;23;20029;-79
2023/09/30 02:25:44;;;;;;;5.60;3.03;;;;;;;18.61;63.43;97462.19;6215854;23;20017;-79
2023/09/30 02:28:26;;;;;;;7.05;2.75;;;;;;;18.58;63.79;97466.03;6215000;23;20027;-78
2023/09/30 02:31:02;;;;;;;6.35;2.58;;;;;;;18.57;63.71;97468.91;6214410;23;20040;-79
2023/09/30 02:33:43;;;;;;;4.75;2.40;;;;;;;18.58;63.67;97467.88;6214925;23;20466;-79
2023/09/30 02:36:21;;;;;;;4.35;2.63;;;;;;;18.60;63.67;97468.47;6215499;23;20021;-79
2023/09/30 02:38:54;;;;;;;4.85;2.45;;;;;;;18.59;63.68;97472.94;6216972;23;20023;-79
2023/09/30 02:44:23;;;;;;;3.90;2.63;;;;;;;18.63;63.71;97478.59;6229022;23;20024;-79
2023/09/30 02:47:03;;;;;;;4.43;2.33;;;;;;;18.64;63.65;97481.03;6191284;23;20466;-80
2023/09/30 02:49:35;;;;;;;4.40;2.67;;;;;;;18.66;63.44;97480.84;6216577;23;20024;-78
2023/09/30 02:52:33;;;;;;;5.30;2.95;;;;;;;18.66;63.40;97486.13;6205299;23;20051;-80
2023/09/30 03:02:43;;;;;;;2.83;1.88;;;;;;;18.61;63.74;97492.03;6149859;23;20495;-80
2023/09/30 03:05:21;;;;;;;6.40;2.50;;;;;;;18.63;63.51;97499.75;6157367;23;20024;-79
2023/09/30 03:07:52;;;;;;;3.92;2.50;;;;;;;18.62;63.66;97509.50;6216516;23;20100;-79
2023/09/30 03:10:25;;;;;;;3.03;1.95;;;;;;;18.62;63.66;97508.69;6216029;23;20088;-79
2023/09/30 03:13:01;;;;;;;3.35;2.10;;;;;;;18.60;63.78;97500.97;6216877;23;20029;-79
2023/09/30 03:15:32;;;;;;;5.05;2.45;;;;;;;18.60;63.87;97508.91;6216645;23;20470;-79
2023/09/30 03:18:26;;;;;;;5.05;3.00;;;;;;;18.63;63.88;97512.94;6216597;23;20024;-80
2023/09/30 03:21:08;;;;;;;4.30;2.72;;;;;;;18.60;63.87;97511.53;6216184;23;20343;-79
2023/09/30 03:23:43;;;;;;;3.15;2.17;;;;;;;18.60;63.77;97516.03;6217438;23;20021;-79
2023/09/30 03:29:12;;;;;;;3.63;2.30;;;;;;;18.61;63.72;97518.47;6216016;23;20100;-80
2023/09/30 03:31:56;;;;;;;3.65;2.40;;;;;;;18.62;64.03;97516.63;6217034;23;20028;-79
2023/09/30 03:34:37;;;;;;;3.70;2.40;;;;;;;18.64;63.91;97517.22;6216480;23;20020;-79
2023/09/30 03:40:18;;;;;;;4.10;2.88;;;;;;;18.57;64.22;97509.34;6216293;23;20082;-79
2023/09/30 03:48:39;;;;;;;5.60;2.78;;;;;;;18.55;64.15;97507.94;6214266;23;20100;-80
2023/09/30 03:51:46;;;;;;;5.05;3.20;;;;;;;18.53;64.33;97503.66;6216054;23;20063;-80
2023/09/30 03:58:03;;;;;;;4.55;3.50;;;;;;;18.52;64.00;97517.91;6216427;23;20096;-79
2023/09/30 04:00:36;;;;;;;5.32;3.03;;;;;;;18.52;64.17;97517.91;6224060;23;20020;-79
2023/09/30 04:03:10;;;;;;;6.38;3.00;;;;;;;18.49;64.38;97515.66;6233214;23;20020;-79
2023/09/30 04:05:40;;;;;;;4.78;3.08;;;;;;;18.47;64.38;97515.06;6230251;23;20184;-79
2023/09/30 04:08:23;;;;;;;5.00;2.97;;;;;;;18.46;64.54;97513.44;6219395;23;20013;-79
2023/09/30 04:14:17;;;;;;;4.45;2.45;;;;;;;18.44;64.32;97506.75;6230402;23;19916;-80
2023/09/30 04:17:01;;;;;;;;;;;;;;;18.44;64.19;97507.56;6209078;23;20524;-80
2023/09/30 04:19:51;;;;;;;5.43;3.40;;;;;;;18.43;63.99;97500.66;6212412;23;19939;-79
2023/09/30 04:22:31;;;;;;;4.72;2.60;;;;;;;18.41;64.44;97502.72;6214423;23;20091;-79
2023/09/30 04:25:49;;;;;;;5.93;2.88;;;;;;;18.39;64.81;97501.28;6216224;23;20017;-79
2023/09/30 04:28:36;;;;;;;3.85;2.75;;;;;;;18.36;65.02;97504.34;6164276;23;20017;-80
2023/09/30 04:31:18;;;;;;;4.40;3.00;;;;;;;18.33;64.88;97505.56;6215889;23;20024;-80
2023/09/30 04:33:52;;;;;;;4.85;2.97;;;;;;;18.33;64.80;97501.09;6215769;23;20024;-80
2023/09/30 04:36:41;;;;;;;6.10;2.92;;;;;;;18.32;64.74;97511.84;6215931;23;20017;-80
2023/09/30 04:39:24;;;;;;;7.00;3.55;;;;;;;18.27;64.96;97511.69;6214936;23;20070;-80
2023/09/30 04:42:19;;;;;;;6.75;3.00;;;;;;;18.24;65.28;97509.47;6215852;23;20017;-79
2023/09/30 04:45:07;;;;;;;6.63;3.83;;;;;;;18.18;65.50;97524.31;6215901;23;20409;-79
2023/09/30 04:47:38;;;;;;;4.63;3.20;;;;;;;18.09;65.45;97534.28;6215358;23;20094;-79
2023/09/30 04:56:07;;;;;;;8.52;4.90;;;;;;;17.86;66.15;97532.09;6216271;23;20397;-80
2023/09/30 04:58:46;;;;;;;5.80;4.05;;;;;;;17.78;66.73;97524.34;6190792;23;20024;-80
2023/09/30 05:01:29;;;;;;;5.38;3.90;;;;;;;17.71;67.03;97526.19;6215561;23;20483;-78
2023/09/30 05:03:59;;;;;;;6.00;4.10;;;;;;;17.65;67.09;97530.44;6189452;23;20020;-78
2023/09/30 05:06:37;;;;;;;7.78;4.03;;;;;;;17.60;67.36;97529.44;6215619;23;20021;-79
2023/09/30 05:12:24;;;;;;;8.63;4.10;;;;;;;17.59;67.53;97520.72;6215772;23;20079;-79
2023/09/30 05:15:11;;;;;;;8.10;4.03;;;;;;;17.58;67.57;97523.53;6211965;23;20021;-79
2023/09/30 05:23:38;;;;;;;4.85;3.88;;;;;;;17.52;67.64;97540.22;6208864;23;20035;-79
2023/09/30 05:26:06;;;;;;;7.88;4.35;;;;;;;17.50;67.71;97549.13;6215468;23;20082;-79
2023/09/30 05:28:34;;;;;;;7.90;4.28;;;;;;;17.51;67.76;97544.66;6215277;23;20123;-79
2023/09/30 05:31:02;;;;;;;5.00;3.92;;;;;;;17.53;67.82;97545.25;6215271;23;20016;-79
2023/09/30 05:33:31;;;;;;;7.25;3.53;;;;;;;17.56;67.75;97551.94;6214946;23;20020;-79
2023/09/30 05:35:59;;;;;;;5.28;3.78;;;;;;;17.53;67.60;97553.16;6215026;23;20031;-79
2023/09/30 05:38:27;;;;;;;8.98;3.97;;;;;;;17.48;67.79;97566.16;6214971;23;20017;-79
2023/09/30 05:40:55;;;;;;;10.57;5.13;;;;;;;17.43;67.81;97568.59;6215681;23;20048;-79
2023/09/30 05:43:23;;;;;;;6.80;3.60;;;;;;;17.39;67.96;97559.47;6214659;23;20462;-78
2023/09/30 05:45:54;;;;;;;4.78;3.53;;;;;;;17.40;68.20;97555.81;6215165;23;20056;-79
2023/09/30 05:48:22;;;;;;;4.70;3.08;;;;;;;17.46;68.24;97557.63;6215582;23;20021;-79
2023/09/30 05:50:52;;;;;;;6.07;3.28;;;;;;;17.55;68.24;97558.25;6214521;23;20103;-79
2023/09/30 05:53:20;;;;;;;5.57;3.28;;;;;;;17.60;67.60;97551.38;6214158;23;20039;-79
2023/09/30 05:55:48;;;;;;;8.35;3.95;;;;;;;17.62;67.41;97551.97;6214367;23;20020;-79
2023/09/30 05:58:17;;;;;;;5.07;3.65;;;;;;;17.65;67.58;97554.19;6214660;23;20363;-79
2023/09/30 06:00:44;;;;;;;6.05;3.60;;;;;;;17.66;67.58;97547.88;6214515;23;20036;-79
2023/09/30 06:03:12;;;;;;;7.38;4.18;;;;;;;17.66;67.42;97547.09;6214078;23;20028;-79
2023/09/30 06:05:42;;;;;;;7.63;5.00;;;;;;;17.63;67.48;97553.59;6214243;23;20459;-79
2023/09/30 06:08:13;;;;;;;5.32;4.15;;;;;;;17.62;67.54;97559.06;6214100;23;20013;-79
2023/09/30 06:10:43;;;;;;;4.57;4.03;;;;;;;17.63;67.57;97571.25;6214131;23;20016;-79
2023/09/30 06:13:12;;;;;;;6.18;4.10;;;;;;;17.66;67.46;97568.19;6215782;23;20489;-79
2023/09/30 06:15:41;;;;;;;7.25;4.15;;;;;;;17.68;67.22;97566.97;6216485;23;20032;-79
2023/09/30 06:18:13;;;;;;;4.63;3.63;;;;;;;17.67;67.41;97568.00;6216133;23;20013;-79
2023/09/30 06:20:41;;;;;;;9.25;3.75;;;;;;;17.69;67.14;97573.09;6216224;23;20019;-79
2023/09/30 06:23:11;;;;;;;6.47;4.00;;;;;;;17.73;67.09;97562.91;6217380;23;20021;-79
2023/09/30 06:25:39;;;;;;;6.63;3.92;;;;;;;17.75;67.03;97566.97;6217513;23;20036;-79
2023/09/30 06:28:08;;;;;;;4.85;3.50;;;;;;;17.77;66.81;97591.34;6216745;23;20454;-79
2023/09/30 06:30:36;;;;;;;4.75;3.20;;;;;;;17.80;67.05;97590.09;6216977;23;20027;-79
2023/09/30 06:33:05;;;;;;;8.70;4.05;;;;;;;17.80;66.99;97590.09;6216658;23;20024;-79
2023/09/30 06:35:37;;;;;;;3.95;3.47;;;;;;;17.77;67.29;97598.44;6216409;23;20020;-79
2023/09/30 06:38:06;;;;;;;5.07;3.57;;;;;;;17.77;67.30;97601.09;6216554;23;20039;-79
2023/09/30 06:40:35;;;;;;;6.15;3.40;;;;;;;17.78;67.41;97613.28;6216090;23;20082;-79
2023/09/30 06:43:07;;;;;;;7.18;4.35;;;;;;;17.76;67.35;97615.31;6216450;23;20028;-79
2023/09/30 06:45:41;;;;;;;5.38;3.70;;;;;;;17.73;67.62;97618.34;6216238;23;20024;-79
2023/09/30 06:48:12;;;;;;;5.25;3.80;;;;;;;17.74;67.48;97626.06;6216152;23;20155;-79
2023/09/30 06:50:41;;;;;;;7.13;4.38;;;;;;;17.71;67.74;97619.34;6216225;23;20102;-79
2023/09/30 06:53:09;;;;;;;6.90;3.92;;;;;;;17.74;67.69;97628.69;6215935;23;20088;-79
2023/09/30 06:55:39;;;;;;;5.18;3.65;;;;;;;17.76;67.84;97639.06;6216159;23;20031;-79
2023/09/30 06:58:08;;;;;;;5.93;3.47;;;;;;;17.81;67.61;97633.97;6216188;23;20048;-79
2023/09/30 07:00:36;;;;;;;8.82;4.40;;;;;;;17.85;67.47;97629.94;6216055;23;20354;-79
2023/09/30 07:03:04;;;;;;;5.70;3.53;;;;;;;17.87;67.47;97643.75;6216477;23;20075;-79
2023/09/30 07:05:32;;;;;;;5.68;3.95;;;;;;;17.89;66.96;97652.28;6218103;23;20048;-79
2023/09/30 07:08:00;;;;;;;9.80;5.00;;;;;;;17.90;66.81;97654.72;6215926;23;20446;-79
2023/09/30 07:10:29;;;;;;;5.03;3.80;;;;;;;17.92;67.00;97657.16;6215715;23;20052;-79
2023/09/30 07:12:58;;;;;;;6.07;3.47;;;;;;;17.94;66.93;97655.13;6216081;23;20029;-79
2023/09/30 07:15:26;;;;;;;7.70;3.92;;;;;;;17.95;66.90;97656.75;6218362;23;20055;-79
2023/09/30 07:17:54;;;;;;;6.72;4.13;;;;;;;17.95;66.35;97656.75;6240597;23;20009;-81
2023/09/30 07:20:22;;;;;;;5.32;3.88;;;;;;;17.93;66.30;97653.50;6239476;23;20080;-80
2023/09/30 07:22:50;;;;;;;4.63;3.85;;;;;;;17.93;66.09;97650.88;6216811;23;20025;-79
2023/09/30 07:25:34;;;;;;;5.60;4.30;;;;;;;17.92;65.90;97647.41;6216316;23;20024;-80
2023/09/30 07:28:03;;;;;;;7.90;4.95;;;;;;;17.92;65.79;97651.88;6216083;23;20021;-79
2023/09/30 07:30:31;;;;;;;6.95;3.65;;;;;;;17.95;65.89;97645.38;6215701;23;20024;-79
2023/09/30 07:32:58;;;;;;;5.55;4.07;;;;;;;18.02;65.55;97647.00;6216040;23;20024;-79
2023/09/30 07:35:26;;;;;;;5.88;4.00;;;;;;;18.10;65.42;97648.63;6215772;23;20358;-79
2023/09/30 07:37:54;;;;;;;5.13;3.83;;;;;;;18.14;65.06;97651.69;6215801;23;20454;-80
2023/09/30 07:40:22;;;;;;;4.85;3.53;;;;;;;18.19;64.86;97662.44;6215838;23;20029;-80
2023/09/30 07:42:49;;;;;;;7.38;4.38;;;;;;;18.21;64.39;97681.53;6216058;23;20028;-80
2023/09/30 07:45:20;;;;;;;9.10;4.95;;;;;;;18.18;64.17;97669.53;6215391;23;20076;-79
2023/09/30 07:47:47;;;;;;;7.88;4.75;;;;;;;18.21;64.07;97676.25;6216095;23;20032;-79
2023/09/30 07:50:15;;;;;;;9.13;5.22;;;;;;;18.26;63.76;97669.34;6215450;23;20017;-79
2023/09/30 07:52:43;;;;;;;7.63;4.22;;;;;;;18.42;64.02;97678.66;6215677;23;20016;-79
2023/09/30 07:55:11;;;;;;;6.82;3.90;;;;;;;18.67;63.48;97676.19;6215341;23;20016;-79
2023/09/30 07:57:42;;;;;;;6.78;4.55;;;;;;;18.92;61.81;97672.91;6219063;23;20028;-80
2023/09/30 08:00:14;;;;;;;7.97;4.82;;;;;;;19.27;61.20;97676.00;6217980;23;20024;-81
2023/09/30 08:02:44;;;;;;;8.27;5.20;;;;;;;19.82;59.03;97677.38;6217455;23;20026;-80
2023/09/30 08:05:13;;;;;;;8.23;4.25;;;;;;;20.29;57.57;97677.78;6216445;23;20020;-80
2023/09/30 08:07:41;;;;;;;7.25;4.70;;;;;;;20.65;56.36;97679.72;6216926;23;20025;-80
2023/09/30 08:10:13;;;;;;;5.30;3.75;;;;;;;20.81;56.13;97680.19;6216665;23;20075;-80
2023/09/30 08:12:41;;;;;;;4.28;3.33;;;;;;;20.83;55.97;97667.53;6217015;23;20028;-80
2023/09/30 08:15:12;;;;;;;6.85;4.10;;;;;;;20.85;55.49;97679.53;6216827;23;20025;-80
2023/09/30 08:17:40;;;;;;;7.03;4.55;;;;;;;20.91;54.93;97685.78;6217381;23;20021;-80
2023/09/30 08:20:11;;;;;;;6.68;3.85;;;;;;;21.02;54.86;97681.59;6217078;23;20028;-80
2023/09/30 08:22:38;;;;;;;7.63;3.92;;;;;;;21.02;54.66;97694.84;6216924;23;20021;-79
2023/09/30 08:25:07;;;;;;;5.30;4.20;;;;;;;20.90;53.94;97690.28;6216456;23;20501;-81
2023/09/30 08:27:35;;;;;;;6.20;4.03;;;;;;;20.95;53.36;97679.81;6216573;23;20031;-80
2023/09/30 08:30:05;;;;;;;5.72;3.95;;;;;;;21.04;53.55;97669.72;6216325;23;20020;-80
2023/09/30 08:32:33;;;;;;;5.97;3.70;;;;;;;21.14;53.04;97685.94;6216740;23;20540;-81
2023/09/30 08:35:02;;;;;;;4.88;3.60;;;;;;;21.23;52.34;97683.78;6216158;23;20031;-80
2023/09/30 08:37:32;;;;;;;7.15;4.10;;;;;;;21.37;51.14;97690.53;6216747;23;20373;-81
2023/09/30 08:40:00;;;;;;;5.55;3.58;;;;;;;21.53;51.28;97690.97;6216701;23;20059;-81
2023/09/30 08:42:32;;;;;;;9.25;4.00;;;;;;;21.62;50.83;97689.63;6216811;23;20025;-80
2023/09/30 08:45:00;;;;;;;5.50;3.70;;;;;;;21.67;50.41;97691.59;6216376;23;20031;-80
2023/09/30 08:47:28;;;;;;;7.90;3.85;;;;;;;21.78;50.05;97689.00;6216698;23;20020;-80
2023/09/30 08:50:05;;;;;;;7.65;3.80;;;;;;;21.94;49.35;97684.06;6216065;23;20019;-81
2023/09/30 08:52:35;;;;;;;6.53;3.63;;;;;;;22.13;48.92;97677.63;6216915;23;20031;-80
2023/09/30 08:55:08;;;;;;;7.30;3.72;;;;;;;22.33;48.26;97663.22;6216490;23;20031;-80
2023/09/30 08:57:39;;;;;;;7.18;3.95;;;;;;;22.41;47.02;97657.53;6216555;23;20465;-80
2023/09/30 09:00:11;;;;;;;9.73;4.50;;;;;;;22.37;47.07;97659.88;6216647;23;20025;-81
2023/09/30 09:02:39;;;;;;;7.93;3.90;;;;;;;22.56;47.03;97657.88;6216558;23;20230;-81
2023/09/30 09:05:08;;;;;;;9.90;4.47;;;;;;;22.94;46.69;97653.91;6216118;23;20078;-80
2023/09/30 09:07:37;;;;;;;5.05;3.55;;;;;;;23.17;46.01;97661.03;6216263;23;20024;-80
2023/09/30 09:10:07;;;;;;;8.68;4.10;;;;;;;23.18;45.98;97673.31;6215882;23;20016;-81
2023/09/30 09:12:36;;;;;;;6.18;3.67;;;;;;;23.08;46.26;97666.97;6216123;23;20025;-80
2023/09/30 09:15:07;;;;;;;5.93;3.83;;;;;;;22.92;45.84;97663.16;6228397;23;20595;-80
2023/09/30 09:17:43;;;;;;;8.02;4.50;;;;;;;22.85;45.55;97657.97;6218637;23;20027;-80
2023/09/30 09:20:13;;;;;;;6.95;3.92;;;;;;;22.94;45.77;97656.56;6217725;23;20017;-80
2023/09/30 09:22:44;;;;;;;6.13;3.22;;;;;;;22.90;45.96;97650.09;6217609;23;20079;-81
2023/09/30 09:25:12;;;;;;;7.32;4.30;;;;;;;23.06;45.57;97655.75;6217125;23;20025;-80
2023/09/30 09:27:40;;;;;;;7.75;4.97;;;;;;;23.32;44.47;97668.50;6217606;23;20020;-81
2023/09/30 09:30:16;;;;;;;7.32;4.28;;;;;;;23.31;44.88;97669.56;6217800;23;20323;-80
2023/09/30 09:32:54;;;;;;;6.93;3.75;;;;;;;23.72;44.18;97666.81;6217358;23;20024;-80
2023/09/30 09:35:25;;;;;;;6.75;3.50;;;;;;;24.33;43.01;97656.34;6223581;23;20020;-80
2023/09/30 09:37:58;;;;;;;5.95;3.83;;;;;;;24.94;41.51;97667.09;6217181;23;20024;-80
2023/09/30 09:40:27;;;;;;;5.68;3.40;;;;;;;25.23;41.09;97665.03;6216668;23;20044;-80
2023/09/30 09:42:56;;;;;;;6.35;4.25;;;;;;;25.38;39.91;97662.53;6216834;23;20045;-80
2023/09/30 09:45:25;;;;;;;7.88;4.40;;;;;;;25.65;39.10;97667.91;6216473;23;20021;-80
2023/09/30 09:47:54;;;;;;;8.10;4.22;;;;;;;25.59;38.62;97674.25;6218268;23;20032;-80
2023/09/30 09:50:23;;;;;;;6.55;3.75;;;;;;;25.47;38.19;97670.91;6218446;23;20080;-80
2023/09/30 09:52:55;;;;;;;6.10;3.65;;;;;;;25.50;37.70;97670.44;6218374;23;20021;-81
2023/09/30 09:55:26;;;;;;;6.25;3.90;;;;;;;25.67;37.48;97670.31;6217856;23;20060;-80
2023/09/30 09:57:55;;;;;;;5.18;2.90;;;;;;;25.79;37.87;97673.63;6218425;23;20020;-80
2023/09/30 10:00:25;;;;;;;6.70;3.47;;;;;;;26.07;37.43;97666.44;6218286;23;20070;-80
2023/09/30 10:02:53;;;;;;;5.28;3.00;;;;;;;26.35;37.54;97667.13;6218281;23;20103;-80
2023/09/30 10:05:22;;;;;;;6.25;3.55;;;;;;;26.58;37.58;97657.97;6217965;23;20036;-80
2023/09/30 10:07:54;;;;;;;7.50;3.25;;;;;;;26.73;36.50;97659.91;6217991;23;20028;-80
2023/09/30 10:10:25;;;;;;;5.95;3.47;;;;;;;26.87;36.83;97663.72;6218000;23;20063;-80
2023/09/30 10:12:53;;;;;;;6.07;3.42;;;;;;;27.02;36.57;97652.28;6217938;23;20025;-80
2023/09/30 10:15:42;;;;;;;6.28;3.42;;;;;;;27.25;36.81;97645.69;6217268;23;20024;-80
2023/09/30 10:18:11;;;;;;;6.38;2.78;;;;;;;27.44;35.95;97633.41;6217807;23;20052;-81
2023/09/30 10:20:47;;;;;;;7.32;3.40;;;;;;;27.58;35.71;97640.94;6217899;23;20292;-80
2023/09/30 10:23:20;;;;;;;5.68;3.42;;;;;;;27.63;35.04;97638.25;6219187;23;20025;-80
2023/09/30 10:25:51;;;;;;;5.50;3.50;;;;;;;27.53;35.72;97642.53;6233154;23;20078;-80
2023/09/30 10:28:38;;;;;;;10.68;4.30;;;;;;;27.51;35.98;97644.69;6228548;23;20031;-80
2023/09/30 10:31:15;;;;;;;6.88;3.53;;;;;;;27.57;35.38;97642.00;6219599;23;20017;-80
2023/09/30 10:34:26;;;;;;;11.50;3.92;;;;;;;27.74;35.67;97634.50;6218758;23;20357;-81
2023/09/30 10:36:53;;;;;;;8.98;4.85;;;;;;;27.93;34.96;97632.94;6188301;23;20466;-80
2023/09/30 10:39:55;;;;;;;7.38;4.00;;;;;;;27.96;35.08;97647.69;6218242;23;20072;-80
2023/09/30 10:42:46;;;;;;;5.32;3.42;;;;;;;28.15;33.78;97642.56;6096983;23;20057;-80
2023/09/30 10:45:44;;;;;;;6.90;3.70;;;;;;;28.23;33.48;97644.72;6212038;23;20065;-80
2023/09/30 10:48:37;;;;;;;6.32;3.50;;;;;;;28.33;34.85;97655.41;6217513;23;20238;-80
2023/09/30 10:51:14;;;;;;;6.85;3.63;;;;;;;28.24;33.20;97654.38;6217884;23;20016;-80
2023/09/30 10:53:45;;;;;;;6.82;3.97;;;;;;;27.99;33.49;97649.00;6217660;23;20091;-80
2023/09/30 10:56:12;;;;;;;5.85;3.65;;;;;;;27.78;33.21;97645.50;6218220;23;20051;-80
2023/09/30 10:58:43;;;;;;;8.30;4.07;;;;;;;27.54;33.88;97649.50;6217449;23;20020;-80
2023/09/30 11:01:11;;;;;;;5.15;3.70;;;;;;;27.35;34.23;97640.34;6217469;23;20392;-80
2023/09/30 11:03:38;;;;;;;9.20;4.15;;;;;;;27.25;34.47;97635.78;6217184;23;20104;-80
2023/09/30 11:06:06;;;;;;;8.77;4.22;;;;;;;27.10;34.14;97633.81;6217409;23;20028;-80
2023/09/30 11:08:45;;;;;;;7.80;4.10;;;;;;;26.74;33.94;97627.53;6217226;23;20051;-80
2023/09/30 11:11:14;;;;;;;7.43;4.30;;;;;;;26.36;34.80;97625.97;6216128;23;20070;-80
2023/09/30 11:13:43;;;;;;;8.48;4.25;;;;;;;26.13;35.38;97621.78;6215789;23;20466;-80
2023/09/30 11:16:10;;;;;;;8.00;4.45;;;;;;;25.94;35.48;97621.41;6217178;23;20024;-80
2023/09/30 11:18:38;;;;;;;6.50;4.63;;;;;;;25.81;35.95;97622.63;6217093;23;20024;-80
2023/09/30 11:21:08;;;;;;;8.30;4.47;;;;;;;25.77;35.75;97616.16;6216718;23;20096;-80
2023/09/30 11:23:37;;;;;;;9.43;4.38;;;;;;;25.66;35.55;97609.91;6216571;23;20024;-80
2023/09/30 11:26:05;;;;;;;7.30;3.67;;;;;;;25.49;35.64;97602.84;6228381;23;20017;-80
2023/09/30 11:28:39;;;;;;;6.82;3.60;;;;;;;25.31;36.62;97597.06;6218713;23;20048;-80
2023/09/30 11:31:13;;;;;;;4.72;3.15;;;;;;;25.16;36.92;97589.66;6218582;23;20073;-77
2023/09/30 11:33:49;;;;;;;7.70;3.75;;;;;;;25.10;37.10;97580.78;6224470;23;20024;-80
2023/09/30 11:36:17;;;;;;;9.18;4.55;;;;;;;24.97;37.58;97587.34;6250352;23;20020;-80
2023/09/30 11:38:47;;;;;;;8.93;4.60;;;;;;;24.80;37.43;97591.94;6249400;23;20027;-79
2023/09/30 11:41:15;;;;;;;8.13;4.57;;;;;;;24.66;37.45;97592.31;6249270;23;20071;-79
2023/09/30 11:44:07;;;;;;;6.40;4.30;;;;;;;25.11;37.00;97589.63;6248283;23;20024;-79
2023/09/30 11:46:55;;;;;;;7.68;4.63;;;;;;;26.47;35.23;97587.50;6248672;23;20023;-80
2023/09/30 11:49:28;;;;;;;8.20;4.20;;;;;;;27.83;32.42;97591.88;6248244;23;20030;-80
2023/09/30 11:51:58;;;;;;;10.35;5.10;;;;;;;29.08;30.34;97584.03;6247518;23;20476;-79
2023/09/30 11:54:31;;;;;;;7.55;4.38;;;;;;;30.02;28.10;97575.84;6249767;23;20107;-79
2023/09/30 11:57:00;;;;;;;8.27;4.57;;;;;;;30.54;27.92;97570.75;6249814;23;20016;-79
2023/09/30 11:59:27;;;;;;;10.18;5.15;;;;;;;31.04;27.23;97582.00;6249691;23;20081;-79
2023/09/30 12:01:56;;;;;;;8.38;4.90;;;;;;;31.41;25.59;97588.47;6249090;23;20040;-79
2023/09/30 12:04:41;;;;;;;7.78;5.10;;;;;;;31.30;25.93;97581.63;6248421;23;20024;-79
2023/09/30 12:07:09;;;;;;;9.60;5.20;;;;;;;30.82;26.85;97584.44;6248107;23;20020;-79
2023/09/30 12:09:39;;;;;;;8.00;4.38;;;;;;;30.24;27.49;97582.63;6248217;23;20058;-79
2023/09/30 12:12:09;;;;;;;10.85;5.32;;;;;;;29.66;28.30;97600.34;6247693;23;20074;-79
2023/09/30 12:14:37;;;;;;;8.40;5.20;;;;;;;29.02;28.20;97591.34;6247469;23;20078;-79
2023/09/30 12:17:10;;;;;;;9.05;5.20;;;;;;;28.57;29.18;97600.38;6248094;23;20031;-79
2023/09/30 12:19:39;;;;;;;7.80;4.78;;;;;;;28.21;30.15;97597.78;6247794;23;20101;-79
2023/09/30 12:22:07;;;;;;;8.73;4.85;;;;;;;27.85;30.33;97601.28;6248000;23;20016;-79
2023/09/30 12:24:34;;;;;;;10.73;5.05;;;;;;;27.49;31.15;97590.53;6247356;23;20035;-79
2023/09/30 12:27:02;;;;;;;8.55;5.05;;;;;;;27.28;31.49;97592.38;6247982;23;20073;-79
2023/09/30 12:29:30;;;;;;;9.07;5.32;;;;;;;27.16;31.56;97586.44;6247432;23;20073;-79
2023/09/30 12:31:57;;;;;;;8.55;4.97;;;;;;;27.02;31.76;97590.69;6248268;23;20024;-79
2023/09/30 12:34:27;;;;;;;8.55;5.07;;;;;;;26.88;31.83;97588.50;6247051;23;20350;-79
2023/09/30 12:36:55;;;;;;;10.70;6.00;;;;;;;26.72;31.54;97584.19;6247123;23;20020;-79
2023/09/30 12:39:24;;;;;;;11.48;5.88;;;;;;;26.49;31.67;97583.50;6246851;23;20024;-79
2023/09/30 12:41:54;;;;;;;11.55;5.30;;;;;;;26.30;32.02;97582.31;6247786;23;20017;-79
2023/09/30 12:44:22;;;;;;;11.25;5.78;;;;;;;26.16;32.65;97579.31;6247073;23;20048;-79
2023/09/30 12:46:50;;;;;;;10.40;5.63;;;;;;;26.07;32.82;97572.84;6247265;23;20031;-79
2023/09/30 12:49:20;;;;;;;10.60;5.47;;;;;;;25.97;32.90;97562.06;6246578;23;20469;-79
2023/09/30 12:51:49;;;;;;;9.40;5.22;;;;;;;25.88;33.85;97567.91;6246695;23;20458;-79
2023/09/30 12:54:18;;;;;;;9.93;5.00;;;;;;;25.81;33.83;97569.97;6246609;23;20024;-79
2023/09/30 12:56:47;;;;;;;10.95;5.63;;;;;;;25.71;34.04;97569.88;6247464;23;20031;-78
2023/09/30 12:59:14;;;;;;;8.68;4.88;;;;;;;25.65;33.96;97570.91;6249207;23;20024;-79
2023/09/30 13:01:42;;;;;;;10.43;5.80;;;;;;;25.59;33.30;97577.28;6247528;23;20020;-79
2023/09/30 13:04:11;;;;;;;12.07;6.25;;;;;;;25.44;33.15;97573.41;6247840;23;20056;-79
2023/09/30 13:06:38;;;;;;;11.23;6.22;;;;;;;25.35;33.26;97577.59;6248064;23;20092;-79
2023/09/30 13:09:08;;;;;;;9.63;5.53;;;;;;;25.19;33.55;97573.97;6247277;23;20020;-79
2023/09/30 13:11:36;;;;;;;12.52;6.50;;;;;;;25.04;33.81;97565.78;6248299;23;20020;-79
2023/09/30 13:14:04;;;;;;;11.95;6.28;;;;;;;24.95;34.13;97556.59;6246893;23;20046;-79
2023/09/30 13:16:32;;;;;;;10.25;5.45;;;;;;;24.92;34.62;97549.91;6246890;23;20020;-79
2023/09/30 13:19:01;;;;;;;11.65;6.15;;;;;;;24.91;34.39;97552.84;6246826;23;20024;-79
2023/09/30 13:21:30;;;;;;;10.45;6.22;;;;;;;24.91;34.58;97556.31;6253194;23;20047;-79
2023/09/30 13:23:57;;;;;;;10.98;5.90;;;;;;;24.91;34.62;97550.16;6248285;23;20054;-78